East Enterprise, Indiana
Current Conditions -  °F | °C
As of 2:52 AM on Friday 19 Dec 2014 (Local Time) from KCVG Reporting Station
Clear Clear  
Wind Chill: 26°   Ceiling: Unl
Heat Index: 26°   Visibility: 7mi
Dew Point: 19°   Wind: 3mph
Humidity: 75%   Direction: 320°NW
Pressure: 30.23"   Gusts: NA
Location:  38.87°N, 84.99°W
Report Text: KCVG 190752Z 32003KT 7SM CLR M03/M07 A3023 RMK AO2 SLP245 T10331072
Loading
Personal Weather Stations






























Interactive Weather Map New forecast layout! Learn more

10-Day Weather Forecast

Advertisements
Track Severe Weather on mobile